Time;durP1;ratioP1;P1;durP2;ratioP2;P2;SDS_P1;SDS_P2;PMS_P1;PMS_P2;Temp;Humidity;BMP_temperature;BMP_pressure;BME280_temperature;BME280_humidity;BME280_pressure;Samples;Min_cycle;Max_cycle;Signal;HPM_P1;HPM_P2
2023/08/14 00:00:54;;;;;;;2.37;2.17;;;19.50;99.90;;;;;;5027445;28;20577;-50
2023/08/14 00:03:20;;;;;;;2.70;1.47;;;19.50;99.90;;;;;;5030357;28;20226;-50
2023/08/14 00:05:47;;;;;;;2.97;2.13;;;19.50;99.90;;;;;;5026229;28;20207;-50
2023/08/14 00:08:16;;;;;;;2.40;2.20;;;19.60;99.90;;;;;;5030351;28;20648;-51
2023/08/14 00:10:43;;;;;;;2.60;2.33;;;19.60;99.90;;;;;;5029994;28;20230;-51
2023/08/14 00:13:09;;;;;;;2.60;2.37;;;19.60;99.90;;;;;;5030388;28;20230;-50
2023/08/14 00:15:37;;;;;;;2.17;1.87;;;19.60;99.90;;;;;;5036096;28;20205;-51
2023/08/14 00:18:06;;;;;;;2.37;2.27;;;19.70;99.90;;;;;;5041824;28;20194;-51
2023/08/14 00:20:33;;;;;;;2.30;2.17;;;19.60;99.90;;;;;;5036346;28;20202;-50
2023/08/14 00:23:03;;;;;;;2.83;2.73;;;19.60;99.90;;;;;;5041121;28;20732;-50
2023/08/14 00:25:31;;;;;;;2.37;2.27;;;19.50;99.90;;;;;;5029299;28;20218;-51
2023/08/14 00:28:01;;;;;;;2.70;2.50;;;19.50;99.90;;;;;;5031237;28;20198;-51
2023/08/14 00:30:28;;;;;;;4.17;3.87;;;19.60;99.90;;;;;;5034034;28;20712;-50
2023/08/14 00:32:55;;;;;;;3.37;3.13;;;19.50;99.90;;;;;;5030493;28;20272;-50
2023/08/14 00:35:22;;;;;;;3.50;3.23;;;19.50;99.90;;;;;;5043947;28;20201;-50
2023/08/14 00:37:50;;;;;;;3.40;3.17;;;19.50;99.90;;;;;;5049998;28;20351;-51
2023/08/14 00:40:17;;;;;;;2.80;2.70;;;19.50;99.90;;;;;;5037566;28;20252;-50
2023/08/14 00:42:47;;;;;;;2.90;2.80;;;19.40;99.90;;;;;;5042008;28;20217;-50
2023/08/14 00:45:14;;;;;;;3.30;3.10;;;19.40;99.90;;;;;;5038763;28;20202;-51
2023/08/14 00:47:44;;;;;;;2.93;2.73;;;19.40;99.90;;;;;;5030549;28;20230;-51
2023/08/14 00:50:12;;;;;;;3.17;2.97;;;19.40;99.90;;;;;;5027844;28;20218;-51
2023/08/14 00:52:42;;;;;;;3.93;3.63;;;19.40;99.90;;;;;;5027376;28;20226;-50
2023/08/14 00:55:14;;;;;;;2.93;2.63;;;19.40;99.90;;;;;;5027117;28;20203;-50
2023/08/14 00:57:41;;;;;;;3.20;3.10;;;19.50;99.90;;;;;;5010397;28;20218;-50
2023/08/14 01:00:12;;;;;;;4.03;3.67;;;19.50;99.90;;;;;;5022938;28;20203;-50
2023/08/14 01:02:40;;;;;;;3.77;3.50;;;19.50;99.90;;;;;;5038104;28;20298;-50
2023/08/14 01:05:07;;;;;;;3.20;3.03;;;19.50;99.90;;;;;;5038835;28;20217;-50
2023/08/14 01:07:34;;;;;;;3.33;3.10;;;19.40;99.90;;;;;;5029190;28;20600;-51
2023/08/14 01:10:02;;;;;;;3.30;3.00;;;19.50;99.90;;;;;;5041428;28;20223;-50
2023/08/14 01:12:42;;;;;;;2.73;2.63;;;19.50;99.90;;;;;;5050251;28;20241;-50
2023/08/14 01:15:14;;;;;;;6.10;3.30;;;19.50;99.90;;;;;;5050644;28;20671;-50
2023/08/14 01:17:49;;;;;;;2.73;2.63;;;19.50;99.90;;;;;;5044123;28;20271;-50
2023/08/14 01:20:20;;;;;;;3.80;3.37;;;19.50;99.90;;;;;;5036665;28;20201;-51
2023/08/14 01:22:55;;;;;;;3.30;3.10;;;19.40;99.90;;;;;;5041020;28;20296;-51
2023/08/14 01:25:32;;;;;;;2.73;2.53;;;19.50;99.90;;;;;;5042244;28;20197;-51
2023/08/14 01:28:02;;;;;;;2.93;2.63;;;19.40;99.90;;;;;;5050628;28;20202;-50
2023/08/14 01:30:29;;;;;;;3.23;3.03;;;19.40;99.90;;;;;;5037617;28;20222;-51
2023/08/14 01:32:56;;;;;;;3.33;3.13;;;19.50;99.90;;;;;;5031942;28;20264;-50
2023/08/14 01:35:26;;;;;;;3.80;3.43;;;19.50;99.90;;;;;;5032866;28;20261;-50
2023/08/14 01:38:05;;;;;;;4.73;4.33;;;19.50;99.90;;;;;;5034225;28;20206;-50
2023/08/14 01:40:46;;;;;;;3.57;3.37;;;19.40;99.90;;;;;;5040090;28;20206;-50
2023/08/14 01:43:21;;;;;;;5.00;4.60;;;19.40;99.90;;;;;;5039758;28;20280;-50
2023/08/14 01:45:48;;;;;;;3.07;2.80;;;19.40;99.90;;;;;;5051350;28;20201;-50
2023/08/14 01:48:16;;;;;;;3.27;2.93;;;19.40;99.90;;;;;;5053869;28;20248;-50
2023/08/14 01:50:44;;;;;;;5.13;3.33;;;19.40;99.90;;;;;;5046657;28;20218;-50
2023/08/14 01:53:11;;;;;;;3.33;3.23;;;19.40;99.90;;;;;;5041427;28;20225;-50
2023/08/14 01:55:39;;;;;;;3.73;3.43;;;19.40;99.90;;;;;;5032820;28;20722;-50
2023/08/14 01:58:06;;;;;;;3.50;3.30;;;19.40;99.90;;;;;;5053553;28;20276;-50
2023/08/14 02:00:34;;;;;;;3.70;3.47;;;19.40;99.90;;;;;;5053535;28;20244;-50
2023/08/14 02:03:01;;;;;;;4.30;3.90;;;19.40;99.90;;;;;;5053061;28;20265;-50
2023/08/14 02:05:28;;;;;;;3.17;3.00;;;19.40;99.90;;;;;;5041479;28;20269;-51
2023/08/14 02:07:55;;;;;;;3.97;3.70;;;19.40;99.90;;;;;;5040601;28;20205;-50
2023/08/14 02:10:23;;;;;;;5.00;4.47;;;19.40;99.90;;;;;;5046995;28;20726;-51
2023/08/14 02:12:51;;;;;;;4.23;3.97;;;19.40;99.90;;;;;;5053070;28;20287;-50
2023/08/14 02:15:20;;;;;;;4.17;3.83;;;19.40;99.90;;;;;;5053444;28;20256;-50
2023/08/14 02:17:47;;;;;;;4.23;3.93;;;19.40;99.90;;;;;;5053218;28;20206;-51
2023/08/14 02:20:13;;;;;;;4.93;4.53;;;19.40;99.90;;;;;;5035416;28;20284;-50
2023/08/14 02:22:40;;;;;;;4.10;3.90;;;19.40;99.90;;;;;;5040584;28;20291;-51
2023/08/14 02:25:08;;;;;;;3.80;3.60;;;19.40;99.90;;;;;;5053437;28;20206;-50
2023/08/14 02:27:35;;;;;;;4.10;3.90;;;19.30;99.90;;;;;;5053213;28;20629;-51
2023/08/14 02:30:04;;;;;;;3.60;3.40;;;19.30;99.90;;;;;;5053081;28;20206;-51
2023/08/14 02:32:31;;;;;;;3.83;3.63;;;19.30;99.90;;;;;;5041836;28;20229;-51
2023/08/14 02:34:58;;;;;;;3.67;3.37;;;19.40;99.90;;;;;;5039219;28;20203;-50
2023/08/14 02:37:25;;;;;;;3.10;2.90;;;19.30;99.90;;;;;;5031900;28;20552;-50
2023/08/14 02:39:52;;;;;;;3.97;3.60;;;19.40;99.90;;;;;;5033008;28;20202;-50
2023/08/14 02:42:20;;;;;;;3.80;3.23;;;19.40;99.90;;;;;;5032675;28;20219;-49
2023/08/14 02:44:47;;;;;;;2.50;2.40;;;19.40;99.90;;;;;;5027815;28;20198;-50
2023/08/14 02:47:16;;;;;;;3.10;2.90;;;19.40;99.90;;;;;;5029330;28;20206;-50
2023/08/14 02:49:43;;;;;;;3.83;3.43;;;19.40;99.90;;;;;;5042964;28;20209;-51
2023/08/14 02:52:10;;;;;;;4.03;3.80;;;19.40;99.90;;;;;;5052035;28;20637;-50
2023/08/14 02:54:37;;;;;;;3.13;3.00;;;19.40;99.90;;;;;;5039110;28;20207;-50
2023/08/14 02:57:04;;;;;;;3.80;3.60;;;19.40;99.90;;;;;;5040813;28;20264;-50
2023/08/14 02:59:32;;;;;;;3.00;2.73;;;19.40;99.90;;;;;;5120336;22;20305;-51
2023/08/14 03:01:59;;;;;;;5.47;3.27;;;19.40;99.90;;;;;;5091365;28;20200;-51
2023/08/14 03:04:29;;;;;;;3.33;3.23;;;19.40;99.90;;;;;;5087083;28;20210;-51
2023/08/14 03:06:57;;;;;;;4.40;4.10;;;19.40;99.90;;;;;;5089906;28;20274;-52
2023/08/14 03:09:24;;;;;;;4.03;3.77;;;19.40;99.90;;;;;;5085841;28;20256;-54
2023/08/14 03:11:51;;;;;;;6.93;2.77;;;19.30;99.90;;;;;;5089760;28;20352;-51
2023/08/14 03:14:18;;;;;;;4.00;3.83;;;19.30;99.90;;;;;;5088085;28;20261;-51
2023/08/14 03:16:45;;;;;;;4.27;3.80;;;19.30;99.90;;;;;;5086252;28;20253;-52
2023/08/14 03:19:12;;;;;;;4.47;2.67;;;19.30;99.90;;;;;;5090809;28;20777;-51
2023/08/14 03:21:41;;;;;;;4.60;4.30;;;19.30;99.90;;;;;;5090830;28;20662;-52
2023/08/14 03:24:08;;;;;;;3.33;3.13;;;19.30;99.90;;;;;;5089475;28;20666;-51
2023/08/14 03:26:35;;;;;;;5.20;3.40;;;19.30;99.90;;;;;;5090729;28;20204;-51
2023/08/14 03:29:02;;;;;;;10.83;3.40;;;19.30;99.90;;;;;;5087251;28;20281;-51
2023/08/14 03:31:31;;;;;;;3.77;3.57;;;19.30;99.90;;;;;;5078838;28;20717;-52
2023/08/14 03:33:59;;;;;;;5.27;3.67;;;19.20;99.90;;;;;;5074726;28;20301;-51
2023/08/14 03:36:26;;;;;;;5.67;3.83;;;19.20;99.90;;;;;;5077069;28;20201;-51
2023/08/14 03:38:54;;;;;;;6.53;3.80;;;19.20;99.90;;;;;;5070794;28;20771;-51
2023/08/14 03:41:21;;;;;;;3.50;3.30;;;19.20;99.90;;;;;;5071507;28;20197;-52
2023/08/14 03:43:48;;;;;;;3.10;3.00;;;19.20;99.90;;;;;;5069955;28;20201;-51
2023/08/14 03:46:15;;;;;;;3.20;3.03;;;19.20;99.90;;;;;;5070251;28;20254;-51
2023/08/14 03:48:42;;;;;;;3.57;3.43;;;19.20;99.90;;;;;;5086105;28;20261;-51
2023/08/14 03:51:09;;;;;;;4.83;4.37;;;19.20;99.90;;;;;;5069243;28;20259;-51
2023/08/14 03:53:36;;;;;;;4.10;3.80;;;19.20;99.90;;;;;;5069300;28;20200;-52
2023/08/14 03:56:05;;;;;;;4.57;4.27;;;19.20;99.90;;;;;;5072295;28;20757;-51
2023/08/14 03:58:32;;;;;;;4.93;4.63;;;19.20;99.90;;;;;;5068725;28;20217;-51
2023/08/14 04:00:59;;;;;;;4.33;3.83;;;19.10;99.90;;;;;;5070938;28;20270;-52
2023/08/14 04:03:25;;;;;;;3.37;3.27;;;19.10;99.90;;;;;;5074252;28;20245;-51
2023/08/14 04:05:56;;;;;;;9.20;3.93;;;19.10;99.90;;;;;;5074207;28;20197;-51
2023/08/14 04:08:23;;;;;;;3.80;3.60;;;19.20;99.90;;;;;;5068883;28;20670;-51
2023/08/14 04:10:55;;;;;;;3.77;3.57;;;19.20;99.90;;;;;;5069091;28;20212;-52
2023/08/14 04:13:23;;;;;;;3.90;3.77;;;19.20;99.90;;;;;;5072271;28;20201;-52
2023/08/14 04:15:51;;;;;;;4.90;4.60;;;19.20;99.90;;;;;;5068758;28;20193;-51
2023/08/14 04:18:18;;;;;;;3.93;3.73;;;19.20;99.90;;;;;;5068912;28;20204;-51
2023/08/14 04:20:45;;;;;;;4.80;4.50;;;19.30;99.90;;;;;;5071433;28;20197;-51
2023/08/14 04:23:12;;;;;;;4.43;4.13;;;19.30;99.90;;;;;;5070681;28;20657;-51
2023/08/14 04:25:39;;;;;;;4.47;4.07;;;19.20;99.90;;;;;;5069008;28;20205;-51
2023/08/14 04:28:07;;;;;;;4.17;3.97;;;19.20;99.90;;;;;;5068794;28;20221;-51
2023/08/14 04:30:35;;;;;;;4.27;4.00;;;19.30;99.90;;;;;;5072439;28;20235;-51
2023/08/14 04:33:02;;;;;;;4.70;4.43;;;19.30;99.90;;;;;;5068880;28;20254;-51
2023/08/14 04:35:29;;;;;;;6.77;4.20;;;19.30;99.90;;;;;;5069031;28;20205;-51
2023/08/14 04:37:56;;;;;;;4.80;4.40;;;19.30;99.90;;;;;;5078965;28;20198;-51
2023/08/14 04:40:24;;;;;;;4.17;3.80;;;19.30;99.90;;;;;;5070581;28;20244;-51
2023/08/14 04:42:51;;;;;;;4.47;4.07;;;19.30;99.90;;;;;;5068512;28;20193;-51
2023/08/14 04:45:18;;;;;;;4.10;3.90;;;19.30;99.90;;;;;;5076813;28;20208;-51
2023/08/14 04:47:46;;;;;;;4.43;4.13;;;19.40;99.90;;;;;;5080692;28;20288;-51
2023/08/14 04:50:13;;;;;;;4.50;4.20;;;19.40;99.90;;;;;;5087748;28;20223;-51
2023/08/14 04:52:40;;;;;;;3.97;3.77;;;19.40;99.90;;;;;;5077975;28;20256;-51
2023/08/14 04:55:08;;;;;;;3.83;3.63;;;19.40;99.90;;;;;;5078146;28;20201;-51
2023/08/14 04:57:35;;;;;;;3.70;3.60;;;19.50;99.90;;;;;;5068557;28;20197;-51
2023/08/14 05:00:04;;;;;;;4.50;4.20;;;19.50;99.90;;;;;;5069530;28;20221;-51
2023/08/14 05:02:31;;;;;;;4.43;4.13;;;19.60;99.90;;;;;;5087656;28;20203;-52
2023/08/14 05:04:59;;;;;;;5.63;5.43;;;19.70;99.90;;;;;;5078339;28;20258;-51
2023/08/14 05:07:26;;;;;;;4.40;4.20;;;19.80;99.90;;;;;;5071392;28;20238;-51
2023/08/14 05:09:53;;;;;;;5.43;5.13;;;19.80;99.90;;;;;;5073672;28;20220;-51
2023/08/14 05:12:20;;;;;;;5.30;5.10;;;19.80;99.90;;;;;;5091137;28;20753;-51
2023/08/14 05:14:47;;;;;;;5.13;4.93;;;19.80;99.90;;;;;;5090797;28;20528;-51
2023/08/14 05:17:14;;;;;;;4.27;4.13;;;19.90;99.90;;;;;;5091283;28;20205;-51
2023/08/14 05:19:41;;;;;;;4.80;4.53;;;20.00;99.90;;;;;;5090677;28;20288;-51
2023/08/14 05:22:09;;;;;;;4.17;4.07;;;20.00;99.90;;;;;;5078032;28;20258;-51
2023/08/14 05:24:36;;;;;;;5.27;4.83;;;20.10;99.90;;;;;;5077047;28;20254;-51
2023/08/14 05:27:03;;;;;;;5.00;4.77;;;20.20;99.90;;;;;;5072189;28;20205;-51
2023/08/14 05:29:30;;;;;;;5.17;4.83;;;20.20;99.90;;;;;;5072134;28;20274;-51
2023/08/14 05:31:59;;;;;;;4.80;4.50;;;20.30;99.90;;;;;;5073126;28;20334;-51
2023/08/14 05:34:26;;;;;;;5.50;5.20;;;20.20;99.90;;;;;;5072446;28;20205;-51
2023/08/14 05:36:53;;;;;;;7.43;6.83;;;20.20;99.90;;;;;;5092793;28;20204;-51
2023/08/14 05:39:22;;;;;;;4.90;4.60;;;20.20;99.90;;;;;;5091941;28;20215;-51
2023/08/14 05:41:49;;;;;;;5.37;5.07;;;20.10;99.90;;;;;;5091606;28;20239;-51
2023/08/14 05:44:17;;;;;;;5.07;4.67;;;20.10;99.90;;;;;;5092563;28;20626;-51
2023/08/14 05:46:44;;;;;;;4.67;4.37;;;20.10;99.90;;;;;;5091577;28;20227;-51
2023/08/14 05:49:11;;;;;;;6.97;5.83;;;20.10;99.90;;;;;;5091231;28;20569;-51
2023/08/14 05:51:38;;;;;;;4.13;3.87;;;20.10;99.90;;;;;;5092606;28;20216;-51
2023/08/14 05:54:05;;;;;;;3.93;3.60;;;20.10;99.90;;;;;;5091575;28;20623;-51
2023/08/14 05:56:33;;;;;;;4.33;4.13;;;20.10;99.90;;;;;;5088857;28;20200;-51
2023/08/14 05:59:00;;;;;;;5.33;4.90;;;20.10;99.90;;;;;;5092104;28;20289;-51
2023/08/14 06:01:27;;;;;;;4.30;4.10;;;20.10;99.90;;;;;;5088806;28;20200;-52
2023/08/14 06:03:54;;;;;;;4.53;4.17;;;20.20;99.90;;;;;;5091712;28;20412;-51
2023/08/14 06:06:22;;;;;;;3.90;3.70;;;20.20;99.90;;;;;;5091190;28;20208;-51
2023/08/14 06:08:49;;;;;;;3.93;3.60;;;20.20;99.90;;;;;;5092309;28;20252;-51
2023/08/14 06:11:16;;;;;;;4.70;4.50;;;20.20;99.90;;;;;;5091368;28;20267;-52
2023/08/14 06:13:44;;;;;;;5.00;4.60;;;20.30;99.90;;;;;;5091459;28;20677;-51
2023/08/14 06:16:11;;;;;;;4.30;4.10;;;20.30;99.90;;;;;;5091164;28;20197;-52
2023/08/14 06:18:38;;;;;;;4.87;4.50;;;20.30;99.90;;;;;;5091827;28;20221;-51
2023/08/14 06:21:05;;;;;;;5.30;4.90;;;20.30;99.90;;;;;;5091376;28;20651;-51
2023/08/14 06:23:32;;;;;;;4.83;4.53;;;20.50;99.90;;;;;;5091831;28;20685;-51
2023/08/14 06:25:59;;;;;;;4.90;4.60;;;20.50;99.90;;;;;;5090652;28;20208;-51
2023/08/14 06:28:26;;;;;;;4.00;3.80;;;20.60;99.90;;;;;;5079539;28;20229;-51
2023/08/14 06:30:55;;;;;;;4.27;3.97;;;20.80;99.90;;;;;;5079229;28;20194;-51
2023/08/14 06:33:21;;;;;;;3.80;3.63;;;20.90;99.90;;;;;;5077359;28;20217;-52
2023/08/14 06:35:49;;;;;;;5.77;5.40;;;21.00;99.90;;;;;;5072281;28;20212;-52
2023/08/14 06:38:15;;;;;;;6.20;4.93;;;21.10;99.90;;;;;;5070931;28;20839;-53
2023/08/14 06:40:42;;;;;;;6.10;5.63;;;21.10;99.90;;;;;;5075679;28;20189;-52
2023/08/14 06:43:09;;;;;;;4.50;4.23;;;21.20;99.90;;;;;;5090683;28;20254;-52
2023/08/14 06:45:36;;;;;;;4.70;4.40;;;21.30;99.90;;;;;;5083548;28;20201;-51
2023/08/14 06:48:06;;;;;;;5.93;5.43;;;21.40;99.90;;;;;;5088399;28;20196;-51
2023/08/14 06:50:33;;;;;;;5.03;4.67;;;21.50;99.90;;;;;;5092047;28;20620;-52
2023/08/14 06:53:03;;;;;;;5.93;5.40;;;21.60;99.90;;;;;;5090588;28;20285;-51
2023/08/14 06:55:30;;;;;;;5.60;5.20;;;21.70;99.90;;;;;;5091294;28;20262;-51
2023/08/14 06:58:00;;;;;;;6.33;5.93;;;21.80;99.90;;;;;;5089287;28;20200;-51
2023/08/14 07:00:28;;;;;;;4.70;4.40;;;21.80;99.90;;;;;;5089746;28;20224;-51
2023/08/14 07:02:55;;;;;;;5.80;5.40;;;21.90;99.90;;;;;;5090602;28;20197;-51
2023/08/14 07:05:23;;;;;;;5.07;4.70;;;21.90;99.90;;;;;;5086945;28;20208;-52
2023/08/14 07:07:50;;;;;;;5.93;5.43;;;22.00;99.90;;;;;;5087880;28;20313;-51
2023/08/14 07:10:18;;;;;;;4.77;4.47;;;22.00;99.90;;;;;;5086964;28;20326;-52
2023/08/14 07:12:45;;;;;;;5.37;5.07;;;22.10;99.90;;;;;;5087573;28;20228;-51
2023/08/14 07:15:12;;;;;;;6.23;5.83;;;22.20;99.90;;;;;;5089422;28;20196;-51
2023/08/14 07:17:39;;;;;;;6.00;5.43;;;22.30;99.90;;;;;;5090743;28;20193;-60
2023/08/14 07:20:08;;;;;;;7.10;6.47;;;22.40;99.90;;;;;;5089579;28;20227;-62
2023/08/14 07:22:36;;;;;;;5.13;4.83;;;22.40;99.90;;;;;;5090326;28;20215;-62
2023/08/14 07:25:03;;;;;;;4.73;4.43;;;22.50;99.90;;;;;;5090367;28;20196;-61
2023/08/14 07:27:30;;;;;;;5.10;4.63;;;22.60;99.90;;;;;;5089831;28;20279;-61
2023/08/14 07:29:57;;;;;;;3.70;3.60;;;22.80;99.90;;;;;;5089091;28;20277;-51
2023/08/14 07:32:24;;;;;;;5.13;4.83;;;23.20;99.90;;;;;;5084423;28;20216;-52
2023/08/14 07:34:51;;;;;;;4.70;4.40;;;23.50;99.90;;;;;;5086103;28;20293;-52
2023/08/14 07:37:18;;;;;;;5.10;4.80;;;24.00;99.90;;;;;;5086605;28;20633;-52
2023/08/14 07:39:47;;;;;;;4.70;4.43;;;24.70;99.90;;;;;;5088642;28;20250;-52
2023/08/14 07:42:14;;;;;;;4.57;4.27;;;25.20;99.90;;;;;;5087188;28;20220;-52
2023/08/14 07:44:41;;;;;;;4.70;4.40;;;25.70;99.90;;;;;;5087505;28;20243;-51
2023/08/14 07:47:08;;;;;;;4.40;4.00;;;26.50;99.90;;;;;;5087238;28;20273;-52
2023/08/14 07:49:35;;;;;;;3.60;3.30;;;27.20;99.90;;;;;;5086022;28;20281;-52
2023/08/14 07:52:02;;;;;;;4.10;3.55;;;27.30;99.90;;;;;;5087918;28;20273;-51
2023/08/14 07:54:29;;;;;;;3.33;3.23;;;27.20;99.90;;;;;;5089281;28;20254;-51
2023/08/14 07:56:57;;;;;;;3.10;3.00;;;26.90;99.90;;;;;;5088149;28;20204;-52
2023/08/14 07:59:24;;;;;;;3.30;3.10;;;26.80;99.90;;;;;;5083879;28;20278;-51
2023/08/14 08:01:51;;;;;;;4.20;3.88;;;26.60;99.90;;;;;;5076796;28;20704;-51
2023/08/14 08:04:18;;;;;;;3.75;3.50;;;26.40;99.90;;;;;;5080201;28;20445;-52
2023/08/14 08:06:45;;;;;;;3.70;3.40;;;26.00;99.90;;;;;;5088072;28;20617;-62
2023/08/14 08:09:13;;;;;;;2.78;2.58;;;26.00;99.90;;;;;;5087276;28;20395;-61
2023/08/14 08:11:40;;;;;;;3.08;2.88;;;26.40;99.90;;;;;;5088890;28;20257;-62
2023/08/14 08:14:08;;;;;;;3.85;3.65;;;26.40;99.90;;;;;;5087991;28;20682;-52
2023/08/14 08:16:36;;;;;;;5.15;2.58;;;26.20;99.90;;;;;;5089758;28;20262;-57
2023/08/14 08:19:04;;;;;;;4.10;3.47;;;26.20;99.90;;;;;;5088735;28;20228;-51
2023/08/14 08:21:32;;;;;;;3.85;3.65;;;26.20;99.90;;;;;;5087258;28;20590;-51
2023/08/14 08:23:59;;;;;;;4.88;4.53;;;26.20;99.90;;;;;;5088947;28;20279;-51
2023/08/14 08:26:26;;;;;;;3.63;3.33;;;26.30;99.90;;;;;;5088410;28;20666;-51
2023/08/14 08:28:53;;;;;;;3.67;3.28;;;26.20;99.90;;;;;;5089343;28;20220;-51
2023/08/14 08:31:22;;;;;;;3.10;3.00;;;26.50;99.90;;;;;;5088441;28;20200;-51
2023/08/14 08:33:49;;;;;;;3.63;3.35;;;26.50;99.90;;;;;;5089471;28;20637;-53
2023/08/14 08:36:17;;;;;;;3.92;3.58;;;26.60;99.90;;;;;;5089732;28;20204;-51
2023/08/14 08:38:44;;;;;;;4.20;3.90;;;26.60;99.90;;;;;;5089532;28;20277;-51
2023/08/14 08:41:14;;;;;;;3.10;2.90;;;26.80;99.90;;;;;;5087857;28;20196;-52
2023/08/14 08:43:41;;;;;;;4.18;3.85;;;27.20;99.90;;;;;;5088723;28;20188;-52
2023/08/14 08:46:10;;;;;;;3.42;3.25;;;27.60;99.90;;;;;;5092419;28;20200;-51
2023/08/14 08:48:43;;;;;;;3.58;3.15;;;28.20;99.90;;;;;;5081915;28;20322;-52
2023/08/14 08:51:10;;;;;;;3.08;2.88;;;28.50;99.90;;;;;;5071915;28;20197;-51
2023/08/14 08:53:38;;;;;;;3.85;3.67;;;28.40;99.90;;;;;;5082225;28;20222;-51
2023/08/14 08:56:05;;;;;;;3.65;3.55;;;28.40;99.90;;;;;;5084414;28;20192;-52
2023/08/14 08:58:32;;;;;;;3.00;2.90;;;28.50;99.90;;;;;;5074894;28;20262;-52
2023/08/14 09:01:00;;;;;;;3.65;3.38;;;28.70;99.90;;;;;;5072905;28;20193;-52
2023/08/14 09:03:27;;;;;;;3.80;3.50;;;28.90;99.90;;;;;;5074570;28;20239;-52
2023/08/14 09:05:56;;;;;;;3.80;3.65;;;29.00;99.90;;;;;;5073381;28;20194;-52
2023/08/14 09:08:23;;;;;;;3.55;3.38;;;29.30;99.90;;;;;;5091027;22;20598;-51
2023/08/14 09:10:50;;;;;;;3.90;3.63;;;29.60;99.90;;;;;;5066903;28;20251;-52
2023/08/14 09:13:18;;;;;;;10.43;4.25;;;30.70;99.90;;;;;;5064223;28;20217;-51
2023/08/14 09:15:45;;;;;;;2.92;2.72;;;31.00;99.90;;;;;;5059487;28;20228;-51
2023/08/14 09:18:12;;;;;;;4.95;3.38;;;31.60;99.90;;;;;;5054366;28;20652;-51
2023/08/14 09:20:40;;;;;;;3.42;3.25;;;32.00;99.90;;;;;;5054985;28;20621;-51
2023/08/14 09:23:14;;;;;;;4.53;3.20;;;32.30;99.90;;;;;;5055369;28;20538;-51
2023/08/14 09:25:42;;;;;;;4.28;4.07;;;32.40;99.90;;;;;;5072422;28;20204;-51
2023/08/14 09:28:09;;;;;;;3.53;3.33;;;32.40;99.90;;;;;;5061742;28;20213;-51
2023/08/14 09:30:37;;;;;;;3.92;3.38;;;32.30;99.90;;;;;;5072117;28;20740;-52
2023/08/14 09:33:08;;;;;;;8.23;3.80;;;32.80;99.90;;;;;;5072862;28;20279;-51
2023/08/14 09:35:35;;;;;;;4.70;4.38;;;33.50;99.90;;;;;;5074803;28;20225;-51
2023/08/14 09:38:05;;;;;;;3.22;3.13;;;33.70;99.90;;;;;;5071788;28;20225;-50
2023/08/14 09:40:34;;;;;;;3.17;3.17;;;34.30;99.90;;;;;;5071814;28;20288;-50
2023/08/14 09:43:02;;;;;;;4.57;3.83;;;34.00;99.90;;;;;;5072089;28;20660;-51
2023/08/14 09:45:34;;;;;;;3.55;3.40;;;33.60;99.90;;;;;;5072952;28;20613;-52
2023/08/14 09:48:03;;;;;;;3.25;3.05;;;33.60;99.90;;;;;;5070704;28;20213;-51
2023/08/14 09:50:31;;;;;;;4.10;3.90;;;33.50;99.90;;;;;;5072624;28;20227;-50
2023/08/14 09:53:02;;;;;;;3.97;3.70;;;33.40;99.90;;;;;;5071353;28;20213;-51
2023/08/14 09:55:29;;;;;;;3.38;3.20;;;33.90;99.90;;;;;;5065292;28;20204;-50
2023/08/14 09:58:00;;;;;;;3.60;3.28;;;34.50;99.90;;;;;;5071526;28;20771;-50
2023/08/14 10:00:31;;;;;;;3.30;3.10;;;34.50;99.90;;;;;;5073351;28;20205;-52
2023/08/14 10:03:02;;;;;;;3.42;3.20;;;35.00;99.90;;;;;;5073101;28;20197;-51
2023/08/14 10:05:29;;;;;;;3.58;3.47;;;34.80;99.90;;;;;;5061007;28;20823;-50
2023/08/14 10:07:58;;;;;;;2.58;2.53;;;34.90;99.90;;;;;;5073301;28;20228;-51
2023/08/14 10:10:30;;;;;;;4.40;3.40;;;34.50;99.90;;;;;;5068954;28;20196;-51
2023/08/14 10:13:04;;;;;;;3.05;2.95;;;34.40;99.90;;;;;;5071912;28;20506;-50
2023/08/14 10:15:35;;;;;;;3.38;3.13;;;34.40;99.90;;;;;;5071870;28;20619;-51
2023/08/14 10:18:10;;;;;;;3.45;3.05;;;34.10;99.90;;;;;;5065304;28;20667;-51
2023/08/14 10:20:38;;;;;;;3.67;3.38;;;32.70;99.90;;;;;;5061872;28;20628;-51
2023/08/14 10:23:09;;;;;;;3.38;3.17;;;32.40;99.90;;;;;;5067461;28;20238;-50
2023/08/14 10:25:38;;;;;;;4.25;4.05;;;32.80;99.90;;;;;;5061647;28;20677;-51
2023/08/14 10:28:07;;;;;;;3.67;3.47;;;33.50;99.90;;;;;;5060661;28;20217;-51
2023/08/14 10:30:36;;;;;;;4.50;4.07;;;33.90;99.90;;;;;;5060827;28;20209;-51
2023/08/14 10:33:06;;;;;;;5.05;4.13;;;34.40;99.90;;;;;;5065299;28;20213;-51
2023/08/14 10:35:45;;;;;;;3.25;2.95;;;34.60;99.90;;;;;;5054173;28;20229;-51
2023/08/14 10:38:12;;;;;;;3.85;3.65;;;34.80;99.90;;;;;;5056225;28;20245;-51
2023/08/14 10:40:52;;;;;;;3.30;3.25;;;34.90;99.90;;;;;;5051990;28;20198;-51
2023/08/14 10:43:24;;;;;;;3.28;3.17;;;34.60;99.90;;;;;;5051880;28;20321;-51
2023/08/14 10:45:53;;;;;;;3.20;2.47;;;34.10;99.90;;;;;;5070840;28;20721;-52
2023/08/14 10:48:21;;;;;;;3.20;3.10;;;34.60;99.90;;;;;;5053775;28;20257;-51
2023/08/14 10:50:49;;;;;;;2.85;2.75;;;34.30;99.90;;;;;;5059124;28;20259;-51
2023/08/14 10:53:17;;;;;;;3.13;3.03;;;34.30;99.90;;;;;;5058039;28;20300;-51
2023/08/14 10:55:46;;;;;;;3.60;3.50;;;34.60;99.90;;;;;;5058206;28;20328;-51
2023/08/14 10:58:47;;;;;;;3.55;3.28;;;34.20;99.90;;;;;;5054504;28;20253;-50
2023/08/14 11:01:14;;;;;;;3.60;2.83;;;33.90;99.90;;;;;;5058758;28;20200;-51
2023/08/14 11:03:56;;;;;;;2.63;2.63;;;33.30;99.90;;;;;;5053049;28;20251;-51
2023/08/14 11:06:24;;;;;;;3.13;2.92;;;32.70;99.90;;;;;;5070971;28;20233;-51
2023/08/14 11:08:58;;;;;;;2.67;2.58;;;32.80;99.90;;;;;;5071830;28;20782;-50
2023/08/14 11:11:26;;;;;;;3.15;3.10;;;32.80;99.90;;;;;;5070941;28;20232;-50
2023/08/14 11:13:55;;;;;;;3.38;3.28;;;32.90;99.90;;;;;;5071830;28;20579;-51
2023/08/14 11:16:22;;;;;;;3.10;3.00;;;33.00;99.90;;;;;;5070992;28;20207;-51
2023/08/14 11:18:50;;;;;;;2.85;2.65;;;32.70;99.90;;;;;;5068149;28;20684;-50
2023/08/14 11:21:17;;;;;;;3.80;3.47;;;32.80;99.90;;;;;;5070858;28;20227;-50
2023/08/14 11:23:44;;;;;;;3.40;3.20;;;32.90;99.90;;;;;;5071663;28;20353;-51
2023/08/14 11:26:11;;;;;;;3.65;3.00;;;33.00;99.90;;;;;;5071652;28;20345;-51
2023/08/14 11:28:38;;;;;;;3.00;2.90;;;33.00;99.90;;;;;;5071641;28;20240;-51
2023/08/14 11:31:07;;;;;;;2.70;2.70;;;32.90;99.90;;;;;;5069659;28;20196;-51
2023/08/14 11:33:34;;;;;;;2.92;2.72;;;33.10;99.90;;;;;;5070758;28;20708;-51
2023/08/14 11:36:00;;;;;;;2.60;2.50;;;33.10;99.90;;;;;;5070719;28;20553;-52
2023/08/14 11:38:27;;;;;;;2.92;2.83;;;33.00;99.90;;;;;;5071434;28;20305;-51
2023/08/14 11:40:54;;;;;;;3.40;3.20;;;32.80;99.90;;;;;;5070301;28;20205;-51
2023/08/14 11:43:21;;;;;;;2.80;2.70;;;32.40;99.90;;;;;;5071052;28;20227;-51
2023/08/14 11:45:49;;;;;;;2.80;2.60;;;32.30;99.90;;;;;;5070608;28;20204;-52
2023/08/14 11:48:19;;;;;;;2.70;2.60;;;32.40;99.90;;;;;;5070267;28;20764;-51
2023/08/14 11:50:48;;;;;;;3.63;3.47;;;32.30;99.90;;;;;;5070201;28;20246;-51
2023/08/14 11:53:15;;;;;;;2.80;2.80;;;32.40;99.90;;;;;;5070174;28;22139;-51
2023/08/14 11:55:42;;;;;;;3.20;3.10;;;32.30;99.90;;;;;;5071093;28;20205;-51
2023/08/14 11:58:09;;;;;;;3.30;3.20;;;32.10;99.90;;;;;;5071052;28;20282;-51
2023/08/14 12:00:36;;;;;;;3.90;3.80;;;32.20;99.90;;;;;;5070186;28;20269;-51
2023/08/14 12:03:06;;;;;;;4.18;4.03;;;32.30;99.90;;;;;;5069399;28;20193;-52
2023/08/14 12:05:35;;;;;;;3.58;3.38;;;32.10;99.90;;;;;;5071108;28;20255;-51
2023/08/14 12:08:02;;;;;;;3.95;3.55;;;32.20;99.90;;;;;;5070947;28;20239;-51
2023/08/14 12:10:33;;;;;;;3.67;3.47;;;32.00;99.90;;;;;;5069292;28;20209;-51
2023/08/14 12:13:03;;;;;;;3.20;3.10;;;31.90;99.90;;;;;;5068495;28;20617;-51
2023/08/14 12:15:31;;;;;;;3.58;3.28;;;31.60;99.90;;;;;;5058448;28;20201;-51
2023/08/14 12:17:58;;;;;;;3.60;3.33;;;31.50;99.90;;;;;;5049804;28;20770;-50
2023/08/14 12:20:26;;;;;;;4.22;4.03;;;31.30;99.90;;;;;;5059543;28;20201;-51
2023/08/14 12:22:54;;;;;;;3.78;3.67;;;31.20;99.90;;;;;;5066505;28;20197;-50
2023/08/14 12:25:21;;;;;;;4.70;4.40;;;31.20;99.90;;;;;;5054281;28;20204;-51
2023/08/14 12:27:48;;;;;;;3.42;3.30;;;31.20;99.90;;;;;;5062486;28;20221;-51
2023/08/14 12:30:15;;;;;;;3.70;3.50;;;31.20;99.90;;;;;;5059233;28;20621;-51
2023/08/14 12:32:47;;;;;;;3.47;3.35;;;31.30;99.90;;;;;;5066895;28;20260;-51
2023/08/14 12:35:14;;;;;;;4.22;3.88;;;31.30;99.90;;;;;;5064556;28;20212;-50
2023/08/14 12:37:41;;;;;;;3.75;3.45;;;31.30;99.90;;;;;;5068713;28;20248;-50
2023/08/14 12:40:11;;;;;;;3.53;3.42;;;31.20;99.90;;;;;;5063237;28;20214;-50
2023/08/14 12:42:38;;;;;;;3.92;3.72;;;31.10;99.90;;;;;;5049907;28;20194;-50
2023/08/14 12:45:07;;;;;;;4.05;3.85;;;31.10;99.90;;;;;;5060953;28;20585;-50
2023/08/14 12:47:34;;;;;;;4.47;4.28;;;31.10;99.90;;;;;;5065592;28;20562;-50
2023/08/14 12:50:01;;;;;;;4.82;4.38;;;31.00;99.90;;;;;;5061325;28;20201;-49
2023/08/14 12:52:28;;;;;;;3.60;3.55;;;31.00;99.90;;;;;;5052756;28;20202;-49